createdAt,value
2022-12-18T00:01:52.306Z,4.93
2022-12-18T00:04:23.002Z,4.15
2022-12-18T00:06:50.337Z,5.18
2022-12-18T00:09:18.177Z,4.97
2022-12-18T00:11:45.177Z,4.78
2022-12-18T00:14:13.203Z,5.63
2022-12-18T00:16:40.862Z,4.35
2022-12-18T00:19:11.098Z,5.45
2022-12-18T00:21:41.477Z,5.90
2022-12-18T00:24:09.929Z,5.45
2022-12-18T00:26:38.820Z,5.60
2022-12-18T00:29:07.437Z,5.63
2022-12-18T00:31:34.786Z,5.68
2022-12-18T00:34:02.136Z,5.40
2022-12-18T00:36:32.057Z,5.03
2022-12-18T00:39:00.576Z,5.32
2022-12-18T00:41:46.389Z,6.05
2022-12-18T00:46:41.383Z,5.75
2022-12-18T00:49:08.679Z,6.03
2022-12-18T00:51:40.448Z,6.53
2022-12-18T00:54:07.393Z,7.00
2022-12-18T00:56:39.371Z,7.97
2022-12-18T00:59:12.860Z,7.70
2022-12-18T01:01:40.050Z,6.85
2022-12-18T01:04:07.416Z,7.45
2022-12-18T01:06:36.461Z,7.85
2022-12-18T01:09:05.294Z,8.30
2022-12-18T01:11:32.515Z,7.78
2022-12-18T01:14:02.537Z,7.93
2022-12-18T01:16:29.599Z,7.63
2022-12-18T01:18:57.522Z,7.75
2022-12-18T01:21:25.158Z,8.02
2022-12-18T01:23:53.792Z,8.07
2022-12-18T01:26:22.560Z,8.77
2022-12-18T01:28:51.213Z,8.30
2022-12-18T01:31:21.100Z,8.45
2022-12-18T01:33:52.147Z,8.65
2022-12-18T01:36:21.437Z,8.13
2022-12-18T01:38:49.004Z,9.38
2022-12-18T01:41:17.712Z,8.80
2022-12-18T01:43:49.476Z,8.60
2022-12-18T01:46:17.883Z,8.27
2022-12-18T01:48:46.180Z,9.15
2022-12-18T01:51:13.768Z,9.00
2022-12-18T01:53:44.056Z,8.43
2022-12-18T01:56:15.660Z,7.78
2022-12-18T01:58:48.724Z,8.82
2022-12-18T02:01:15.912Z,8.90
2022-12-18T02:03:44.235Z,9.98
2022-12-18T02:06:16.045Z,10.20
2022-12-18T02:08:53.197Z,10.98
2022-12-18T02:11:30.605Z,11.93
2022-12-18T02:14:07.196Z,10.98
2022-12-18T02:16:44.487Z,12.10
2022-12-18T02:19:21.942Z,12.52
2022-12-18T02:21:58.497Z,11.65
2022-12-18T02:24:34.708Z,12.95
2022-12-18T02:27:05.957Z,12.85
2022-12-18T02:29:38.598Z,12.82
2022-12-18T02:32:10.307Z,13.35
2022-12-18T02:34:40.638Z,11.95
2022-12-18T02:37:14.848Z,11.68
2022-12-18T02:39:44.344Z,11.40
2022-12-18T02:42:15.465Z,11.65
2022-12-18T02:44:46.848Z,12.00
2022-12-18T02:47:18.589Z,11.38
2022-12-18T02:49:53.667Z,11.50
2022-12-18T02:55:01.158Z,10.52
2022-12-18T02:57:38.438Z,12.60
2022-12-18T03:00:09.528Z,11.45
2022-12-18T03:02:45.730Z,11.65
2022-12-18T03:07:47.448Z,11.93
2022-12-18T03:10:20.530Z,10.40
2022-12-18T03:12:53.539Z,12.60
2022-12-18T03:15:25.990Z,11.15
2022-12-18T03:18:04.684Z,11.93
2022-12-18T03:20:35.190Z,11.27
2022-12-18T03:23:07.503Z,11.95
2022-12-18T03:25:38.794Z,12.68
2022-12-18T03:28:09.914Z,12.07
2022-12-18T03:30:39.871Z,12.75
2022-12-18T03:33:09.932Z,11.50
2022-12-18T03:35:42.690Z,13.05
2022-12-18T03:38:11.968Z,12.23
2022-12-18T03:40:56.829Z,12.70
2022-12-18T03:43:36.667Z,12.40
2022-12-18T03:46:09.143Z,12.57
2022-12-18T03:48:42.782Z,12.85
2022-12-18T03:53:47.317Z,13.45
2022-12-18T03:56:17.113Z,13.98
2022-12-18T03:58:46.754Z,13.27
2022-12-18T04:01:23.547Z,13.73
2022-12-18T04:03:51.896Z,14.18
2022-12-18T04:06:21.013Z,14.27
2022-12-18T04:08:48.415Z,14.50
2022-12-18T04:11:18.739Z,14.25
2022-12-18T04:13:49.094Z,13.43
2022-12-18T04:16:25.611Z,13.40
2022-12-18T04:18:56.072Z,14.15
2022-12-18T04:21:25.185Z,13.40
2022-12-18T04:23:53.079Z,13.63
2022-12-18T04:26:22.740Z,14.32
2022-12-18T04:29:13.704Z,13.63
2022-12-18T04:31:40.762Z,13.88
2022-12-18T04:34:07.840Z,14.05
2022-12-18T04:36:40.800Z,13.95
2022-12-18T04:39:08.124Z,14.05
2022-12-18T04:41:35.132Z,14.15
2022-12-18T04:44:03.424Z,14.63
2022-12-18T04:46:31.898Z,14.63
2022-12-18T04:48:58.888Z,14.40
2022-12-18T04:51:26.806Z,14.13
2022-12-18T04:53:54.212Z,14.18
2022-12-18T04:56:21.222Z,14.07
2022-12-18T04:58:48.194Z,13.70
2022-12-18T05:01:17.362Z,13.95
2022-12-18T05:03:46.235Z,13.95
2022-12-18T05:06:13.628Z,13.88
2022-12-18T05:08:40.725Z,13.75
2022-12-18T05:11:10.328Z,14.40
2022-12-18T05:13:39.184Z,13.55
2022-12-18T05:16:07.612Z,15.45
2022-12-18T05:18:35.329Z,14.05
2022-12-18T05:21:04.324Z,15.25
2022-12-18T05:23:31.668Z,15.10
2022-12-18T05:26:03.801Z,14.43
2022-12-18T05:28:32.949Z,16.42
2022-12-18T05:31:01.791Z,15.07
2022-12-18T05:33:31.331Z,14.68
2022-12-18T05:36:04.000Z,16.08
2022-12-18T05:38:34.143Z,16.30
2022-12-18T05:41:01.213Z,15.70
2022-12-18T05:43:29.104Z,16.10
2022-12-18T05:45:58.234Z,16.45
2022-12-18T05:48:25.424Z,15.73
2022-12-18T05:50:52.820Z,15.57
2022-12-18T05:53:21.524Z,15.73
2022-12-18T05:55:50.435Z,15.60
2022-12-18T05:58:17.393Z,14.73
2022-12-18T06:00:46.580Z,16.25
2022-12-18T06:03:14.507Z,16.92
2022-12-18T06:05:43.609Z,16.10
2022-12-18T06:08:11.648Z,16.17
2022-12-18T06:10:38.956Z,16.63
2022-12-18T06:13:08.227Z,16.92
2022-12-18T06:15:38.089Z,16.95
2022-12-18T06:18:05.206Z,17.85
2022-12-18T06:20:33.823Z,16.50
2022-12-18T06:23:01.143Z,16.90
2022-12-18T06:25:28.248Z,15.50
2022-12-18T06:27:55.285Z,16.52
2022-12-18T06:30:24.304Z,16.50
2022-12-18T06:32:56.297Z,16.77
2022-12-18T06:35:24.752Z,16.27
2022-12-18T06:37:51.949Z,16.88
2022-12-18T06:40:19.499Z,16.65
2022-12-18T06:42:46.482Z,18.55
2022-12-18T06:45:16.781Z,18.67
2022-12-18T06:47:45.165Z,18.58
2022-12-18T06:50:12.623Z,17.40
2022-12-18T06:52:41.236Z,19.70
2022-12-18T06:55:12.306Z,17.88
2022-12-18T06:57:39.524Z,18.73
2022-12-18T07:00:07.930Z,18.95
2022-12-18T07:02:35.236Z,19.33
2022-12-18T07:05:10.270Z,19.48
2022-12-18T07:07:38.361Z,20.23
2022-12-18T07:10:06.133Z,18.60
2022-12-18T07:12:33.694Z,19.83
2022-12-18T07:15:00.659Z,18.13
2022-12-18T07:17:27.673Z,18.85
2022-12-18T07:19:57.880Z,18.50
2022-12-18T07:22:27.729Z,17.70
2022-12-18T07:24:54.680Z,17.77
2022-12-18T07:27:21.765Z,17.17
2022-12-18T07:29:48.761Z,17.55
2022-12-18T07:32:15.837Z,17.50
2022-12-18T07:34:42.789Z,17.77
2022-12-18T07:37:09.756Z,17.77
2022-12-18T07:39:38.084Z,18.38
2022-12-18T07:42:23.789Z,17.60
2022-12-18T07:44:52.011Z,16.67
2022-12-18T07:47:19.252Z,16.50
2022-12-18T07:49:46.153Z,17.08
2022-12-18T07:52:13.513Z,16.60
2022-12-18T07:54:42.300Z,16.25
2022-12-18T07:57:33.728Z,18.20
2022-12-18T07:59:56.849Z,16.00
2022-12-18T08:02:24.078Z,16.50
2022-12-18T08:04:51.097Z,17.35
2022-12-18T08:07:18.052Z,17.13
2022-12-18T08:09:46.425Z,16.27
2022-12-18T08:12:13.458Z,16.48
2022-12-18T08:14:40.656Z,16.48
2022-12-18T08:17:07.733Z,15.25
2022-12-18T08:19:34.728Z,15.18
2022-12-18T08:22:01.694Z,15.63
2022-12-18T08:24:28.863Z,15.70
2022-12-18T08:27:27.739Z,16.73
2022-12-18T08:29:45.146Z,16.60
2022-12-18T08:32:12.238Z,16.70
2022-12-18T08:34:39.693Z,15.85
2022-12-18T08:37:06.601Z,16.75
2022-12-18T08:39:33.750Z,16.65
2022-12-18T08:42:20.792Z,17.13
2022-12-18T08:44:47.891Z,15.93
2022-12-18T08:47:15.050Z,15.35
2022-12-18T08:49:42.091Z,15.48
2022-12-18T08:52:09.916Z,16.02
2022-12-18T08:54:36.863Z,16.35
2022-12-18T08:57:05.212Z,16.77
2022-12-18T08:59:32.427Z,16.98
2022-12-18T09:01:59.484Z,15.75
2022-12-18T09:04:26.489Z,16.25
2022-12-18T09:06:53.438Z,17.95
2022-12-18T09:09:23.122Z,18.60
2022-12-18T09:11:50.176Z,17.25
2022-12-18T09:14:18.493Z,17.65
2022-12-18T09:16:45.660Z,17.60
2022-12-18T09:19:12.733Z,17.80
2022-12-18T09:21:42.214Z,18.55
2022-12-18T09:24:14.532Z,19.77
2022-12-18T09:26:41.617Z,18.35
2022-12-18T09:29:10.676Z,21.33
2022-12-18T09:31:39.786Z,18.17
2022-12-18T09:34:07.029Z,19.05
2022-12-18T09:36:34.253Z,18.38
2022-12-18T09:39:06.312Z,17.42
2022-12-18T09:41:45.364Z,18.23
2022-12-18T09:44:19.583Z,17.48
2022-12-18T09:46:54.958Z,18.02
2022-12-18T09:51:54.120Z,16.60
2022-12-18T09:54:24.968Z,16.83
2022-12-18T09:56:53.251Z,17.45
2022-12-18T09:59:32.191Z,17.52
2022-12-18T10:02:00.702Z,17.02
2022-12-18T10:04:32.404Z,17.27
2022-12-18T10:07:09.433Z,17.42
2022-12-18T10:09:42.904Z,17.90
2022-12-18T10:12:18.719Z,18.30
2022-12-18T10:14:52.884Z,17.23
2022-12-18T10:17:29.257Z,18.17
2022-12-18T10:20:00.652Z,18.23
2022-12-18T10:22:45.346Z,19.02
2022-12-18T10:25:22.734Z,18.02
2022-12-18T10:27:53.748Z,18.70
2022-12-18T10:30:25.117Z,18.42
2022-12-18T10:32:53.908Z,17.45
2022-12-18T10:35:22.778Z,17.98
2022-12-18T10:38:05.439Z,18.27
2022-12-18T10:40:32.737Z,17.75
2022-12-18T10:43:12.025Z,18.42
2022-12-18T10:45:39.421Z,18.05
2022-12-18T10:48:19.653Z,19.65
2022-12-18T10:53:38.607Z,17.70
2022-12-18T10:56:08.141Z,18.10
2022-12-18T10:58:36.665Z,17.33
2022-12-18T11:01:07.761Z,18.50
2022-12-18T11:03:38.014Z,17.70
2022-12-18T11:06:08.508Z,17.05
2022-12-18T11:08:35.600Z,18.63
2022-12-18T11:11:03.150Z,18.35
2022-12-18T11:13:32.484Z,18.40
2022-12-18T11:16:00.615Z,19.55
2022-12-18T11:18:30.978Z,18.38
2022-12-18T11:21:07.368Z,19.13
2022-12-18T11:23:35.469Z,18.77
2022-12-18T11:26:04.545Z,19.23
2022-12-18T11:28:39.798Z,19.63
2022-12-18T11:31:21.128Z,91.97
2022-12-18T11:34:27.046Z,61.40
2022-12-18T11:36:45.657Z,17.35
2022-12-18T11:39:18.649Z,19.05
2022-12-18T11:42:10.125Z,18.27
2022-12-18T11:44:42.702Z,22.05
2022-12-18T11:47:20.656Z,16.90
2022-12-18T11:49:50.771Z,16.02
2022-12-18T11:52:22.314Z,16.08
2022-12-18T11:54:53.859Z,16.13
2022-12-18T11:57:36.343Z,19.83
2022-12-18T12:00:12.986Z,17.90
2022-12-18T12:03:12.616Z,19.92
2022-12-18T12:05:49.411Z,29.65
2022-12-18T12:08:25.716Z,27.83
2022-12-18T12:11:01.913Z,21.02
2022-12-18T12:13:40.771Z,17.25
2022-12-18T12:16:17.133Z,19.60
2022-12-18T12:19:02.908Z,17.27
2022-12-18T12:24:18.030Z,16.05
2022-12-18T12:26:53.542Z,15.73
2022-12-18T12:29:38.198Z,14.15
2022-12-18T12:32:27.146Z,14.82
2022-12-18T12:35:10.163Z,15.18
2022-12-18T12:37:48.788Z,16.85
2022-12-18T12:40:50.240Z,16.08
2022-12-18T12:43:21.421Z,14.90
2022-12-18T12:45:54.461Z,16.25
2022-12-18T12:48:40.408Z,16.90
2022-12-18T12:51:14.936Z,20.73
2022-12-18T12:53:43.270Z,17.05
2022-12-18T12:56:15.758Z,18.80
2022-12-18T12:58:52.900Z,18.80
2022-12-18T13:01:29.960Z,18.80
2022-12-18T13:04:10.015Z,17.27
2022-12-18T13:06:44.959Z,16.85
2022-12-18T13:09:13.415Z,17.17
2022-12-18T13:12:02.864Z,17.00
2022-12-18T13:14:32.835Z,18.00
2022-12-18T13:17:28.552Z,19.58
2022-12-18T13:20:09.129Z,22.05
2022-12-18T13:22:38.978Z,18.38
2022-12-18T13:25:31.746Z,21.92
2022-12-18T13:28:05.118Z,22.50
2022-12-18T13:30:57.466Z,21.23
2022-12-18T13:34:24.667Z,18.48
2022-12-18T13:36:36.303Z,16.38
2022-12-18T13:39:28.934Z,18.10
2022-12-18T13:42:55.847Z,17.42
2022-12-18T13:45:43.606Z,17.58
2022-12-18T13:48:18.411Z,17.52
2022-12-18T13:51:02.945Z,22.45
2022-12-18T13:53:35.186Z,42.55
2022-12-18T13:56:04.737Z,39.25
2022-12-18T13:58:32.476Z,47.33
2022-12-18T14:01:03.080Z,104.05
2022-12-18T14:03:31.625Z,79.47
2022-12-18T14:06:05.794Z,90.22
2022-12-18T14:08:40.552Z,67.85
2022-12-18T14:11:12.198Z,122.97
2022-12-18T14:13:42.839Z,162.20
2022-12-18T14:16:16.575Z,54.05
2022-12-18T14:18:47.254Z,63.28
2022-12-18T14:21:21.851Z,109.07
2022-12-18T14:23:49.098Z,92.40
2022-12-18T14:26:26.360Z,61.97
2022-12-18T14:28:54.878Z,66.25
2022-12-18T14:31:25.227Z,31.02
2022-12-18T14:33:53.435Z,40.83
2022-12-18T14:36:23.450Z,112.75
2022-12-18T14:38:52.034Z,102.22
2022-12-18T14:41:23.238Z,47.03
2022-12-18T14:43:52.112Z,60.80
2022-12-18T14:46:36.475Z,97.03
2022-12-18T14:49:05.654Z,67.38
2022-12-18T14:51:35.071Z,21.20
2022-12-18T14:54:04.212Z,20.90
2022-12-18T14:56:34.681Z,20.77
2022-12-18T14:59:04.615Z,25.60
2022-12-18T15:01:36.246Z,42.03
2022-12-18T15:04:05.342Z,40.65
2022-12-18T15:06:35.669Z,31.73
2022-12-18T15:09:21.346Z,35.83
2022-12-18T15:14:35.886Z,179.32
2022-12-18T15:17:07.300Z,252.27
2022-12-18T15:19:39.090Z,31.25
2022-12-18T15:22:24.709Z,71.72
2022-12-18T15:24:52.711Z,30.05
2022-12-18T15:27:25.369Z,24.75
2022-12-18T15:30:17.730Z,41.60
2022-12-18T15:32:47.196Z,41.95
2022-12-18T15:35:17.323Z,43.53
2022-12-18T15:37:45.305Z,32.17
2022-12-18T15:40:16.065Z,27.92
2022-12-18T15:43:03.591Z,26.58
2022-12-18T15:45:30.697Z,26.80
2022-12-18T15:47:59.275Z,30.52
2022-12-18T15:50:26.552Z,39.58
2022-12-18T15:52:56.410Z,30.77
2022-12-18T15:55:43.589Z,29.25
2022-12-18T15:58:12.863Z,24.33
2022-12-18T16:00:41.593Z,25.83
2022-12-18T16:03:11.033Z,53.33
2022-12-18T16:05:38.230Z,25.85
2022-12-18T16:08:05.253Z,24.45
2022-12-18T16:10:32.330Z,29.80
2022-12-18T16:12:59.489Z,32.97
2022-12-18T16:15:26.492Z,34.90
2022-12-18T16:17:53.653Z,27.58
2022-12-18T16:20:23.251Z,25.10
2022-12-18T16:22:51.026Z,25.45
2022-12-18T16:25:23.368Z,25.35
2022-12-18T16:27:50.686Z,25.90
2022-12-18T16:30:20.854Z,27.15
2022-12-18T16:32:47.992Z,26.95
2022-12-18T16:35:16.575Z,28.40
2022-12-18T16:37:45.191Z,27.27
2022-12-18T16:40:14.707Z,27.10
2022-12-18T16:42:43.402Z,28.92
2022-12-18T16:45:12.426Z,29.40
2022-12-18T16:47:39.736Z,27.45
2022-12-18T16:50:08.369Z,29.27
2022-12-18T16:52:35.994Z,30.13
2022-12-18T16:55:05.636Z,29.15
2022-12-18T16:57:32.745Z,29.08
2022-12-18T17:00:04.764Z,27.70
2022-12-18T17:02:32.866Z,27.90
2022-12-18T17:05:00.117Z,26.10
2022-12-18T17:07:28.378Z,26.50
2022-12-18T17:09:59.052Z,27.20
2022-12-18T17:12:27.489Z,30.48
2022-12-18T17:14:54.464Z,30.92
2022-12-18T17:17:23.365Z,29.05
2022-12-18T17:19:52.448Z,28.67
2022-12-18T17:22:19.496Z,29.10
2022-12-18T17:24:47.205Z,28.85
2022-12-18T17:27:14.265Z,31.35
2022-12-18T17:29:47.373Z,30.90
2022-12-18T17:32:15.952Z,31.40
2022-12-18T17:34:42.959Z,29.25
2022-12-18T17:37:10.180Z,27.25
2022-12-18T17:39:37.403Z,31.48
2022-12-18T17:42:05.231Z,38.15
2022-12-18T17:44:34.447Z,36.00
2022-12-18T17:47:04.207Z,41.33
2022-12-18T17:49:31.728Z,47.85
2022-12-18T17:51:58.795Z,41.72
2022-12-18T17:54:25.759Z,34.28
2022-12-18T17:56:52.771Z,33.55
2022-12-18T17:59:19.698Z,32.33
2022-12-18T18:01:46.942Z,29.70
2022-12-18T18:04:15.816Z,32.03
2022-12-18T18:06:43.199Z,32.05
2022-12-18T18:09:16.473Z,34.28
2022-12-18T18:12:02.956Z,34.25
2022-12-18T18:14:30.260Z,31.95
2022-12-18T18:16:57.361Z,32.72
2022-12-18T18:19:34.151Z,31.73
2022-12-18T18:22:02.147Z,32.42
2022-12-18T18:24:30.419Z,32.60
2022-12-18T18:26:59.636Z,46.65
2022-12-18T18:29:28.991Z,45.83
2022-12-18T18:31:56.537Z,44.92
2022-12-18T18:34:25.299Z,34.28
2022-12-18T18:36:53.982Z,39.33
2022-12-18T18:39:25.881Z,47.88
2022-12-18T18:41:53.078Z,42.60
2022-12-18T18:44:21.925Z,41.60
2022-12-18T18:46:54.726Z,39.20
2022-12-18T18:49:24.329Z,35.28
2022-12-18T18:51:53.352Z,34.63
2022-12-18T18:54:21.342Z,34.20
2022-12-18T18:57:19.320Z,34.83
2022-12-18T18:59:36.509Z,31.42
2022-12-18T19:02:04.755Z,31.98
2022-12-18T19:04:33.326Z,29.83
2022-12-18T19:07:01.711Z,29.80
2022-12-18T19:09:29.466Z,31.55
2022-12-18T19:12:15.267Z,30.63
2022-12-18T19:14:45.200Z,30.35
2022-12-18T19:17:12.255Z,29.70
2022-12-18T19:19:39.661Z,27.15
2022-12-18T19:22:09.423Z,24.52
2022-12-18T19:24:36.713Z,23.98
2022-12-18T19:27:04.001Z,24.35
2022-12-18T19:29:30.995Z,22.65
2022-12-18T19:31:57.953Z,21.20
2022-12-18T19:34:25.240Z,20.65
2022-12-18T19:36:57.922Z,21.60
2022-12-18T19:39:28.020Z,20.30
2022-12-18T19:41:54.988Z,20.85
2022-12-18T19:44:22.216Z,21.92
2022-12-18T19:46:51.521Z,20.42
2022-12-18T19:49:18.534Z,20.45
2022-12-18T19:51:49.889Z,19.80
2022-12-18T19:54:17.908Z,19.80
2022-12-18T19:56:46.927Z,20.25
2022-12-18T19:59:14.061Z,19.73
2022-12-18T20:01:41.101Z,20.33
2022-12-18T20:04:08.385Z,20.27
2022-12-18T20:06:46.169Z,18.63
2022-12-18T20:09:13.144Z,16.45
2022-12-18T20:11:41.910Z,14.82
2022-12-18T20:14:11.513Z,13.95
2022-12-18T20:16:38.753Z,10.95
2022-12-18T20:19:06.117Z,11.73
2022-12-18T20:21:33.880Z,10.45
2022-12-18T20:24:02.080Z,10.00
2022-12-18T20:26:29.354Z,9.57
2022-12-18T20:28:56.681Z,9.63
2022-12-18T20:31:25.294Z,10.27
2022-12-18T20:33:54.479Z,10.55
2022-12-18T20:36:26.890Z,10.50
2022-12-18T20:38:57.246Z,9.43
2022-12-18T20:41:28.182Z,10.10
2022-12-18T20:44:03.105Z,10.13
2022-12-18T20:46:31.541Z,9.55
2022-12-18T20:48:58.543Z,10.75
2022-12-18T20:51:28.016Z,9.98
2022-12-18T20:53:55.277Z,9.57
2022-12-18T20:56:23.820Z,9.50
2022-12-18T20:58:55.093Z,10.13
2022-12-18T21:01:23.464Z,9.55
2022-12-18T21:03:52.714Z,9.52
2022-12-18T21:06:21.930Z,9.73
2022-12-18T21:08:49.378Z,9.30
2022-12-18T21:11:44.764Z,9.63
2022-12-18T21:14:13.661Z,10.05
2022-12-18T21:16:42.992Z,10.27
2022-12-18T21:19:12.925Z,10.20
2022-12-18T21:21:40.393Z,10.27
2022-12-18T21:24:08.480Z,10.80
2022-12-18T21:26:39.240Z,10.10
2022-12-18T21:29:12.919Z,9.52
2022-12-18T21:31:40.570Z,9.70
2022-12-18T21:34:08.566Z,9.45
2022-12-18T21:36:36.933Z,9.73
2022-12-18T21:39:03.949Z,14.38
2022-12-18T21:41:49.071Z,11.02
2022-12-18T21:44:18.776Z,8.48
2022-12-18T21:46:52.977Z,7.97
2022-12-18T21:49:22.906Z,9.20
2022-12-18T21:51:53.245Z,8.13
2022-12-18T21:54:20.841Z,7.95
2022-12-18T21:56:49.516Z,9.27
2022-12-18T21:59:18.120Z,8.73
2022-12-18T22:01:45.657Z,9.55
2022-12-18T22:04:13.206Z,8.48
2022-12-18T22:06:41.343Z,11.10
2022-12-18T22:09:11.132Z,9.30
2022-12-18T22:11:38.426Z,13.45
2022-12-18T22:14:05.862Z,9.05
2022-12-18T22:16:32.954Z,9.55
2022-12-18T22:19:00.008Z,9.13
2022-12-18T22:21:29.748Z,11.30
2022-12-18T22:23:58.949Z,10.77
2022-12-18T22:26:32.698Z,9.52
2022-12-18T22:29:20.820Z,9.57
2022-12-18T22:34:14.652Z,9.15
2022-12-18T22:36:43.271Z,9.05
2022-12-18T22:39:13.214Z,8.52
2022-12-18T22:41:41.829Z,9.43
2022-12-18T22:44:09.056Z,9.60
2022-12-18T22:46:39.795Z,8.10
2022-12-18T22:49:06.825Z,8.95
2022-12-18T22:51:33.787Z,9.10
2022-12-18T22:54:01.137Z,8.60
2022-12-18T22:56:29.040Z,8.93
2022-12-18T22:58:57.693Z,9.18
2022-12-18T23:01:27.207Z,9.75
2022-12-18T23:03:54.806Z,9.43
2022-12-18T23:06:23.571Z,9.68
2022-12-18T23:08:55.875Z,9.10
2022-12-18T23:11:23.142Z,8.95
2022-12-18T23:13:50.145Z,10.35
2022-12-18T23:16:19.724Z,9.10
2022-12-18T23:18:47.053Z,9.52
2022-12-18T23:21:16.590Z,10.43
2022-12-18T23:23:44.516Z,10.05
2022-12-18T23:26:13.573Z,10.23
2022-12-18T23:28:41.537Z,9.90
2022-12-18T23:31:12.310Z,11.00
2022-12-18T23:33:43.252Z,10.48
2022-12-18T23:36:11.909Z,10.55
2022-12-18T23:38:39.579Z,10.30
2022-12-18T23:41:08.109Z,10.45
2022-12-18T23:43:35.183Z,10.18
2022-12-18T23:46:02.581Z,10.35
2022-12-18T23:48:29.535Z,9.95
2022-12-18T23:50:58.003Z,10.40
2022-12-18T23:53:25.020Z,11.10
2022-12-18T23:55:51.941Z,11.13
2022-12-18T23:58:20.628Z,11.70
